createdAt,value
2022-12-01T00:01:44.867Z,3.51
2022-12-01T00:04:11.447Z,3.50
2022-12-01T00:06:38.017Z,3.41
2022-12-01T00:09:23.203Z,3.47
2022-12-01T00:11:49.733Z,3.47
2022-12-01T00:14:16.488Z,3.50
2022-12-01T00:16:44.569Z,3.51
2022-12-01T00:19:11.264Z,3.57
2022-12-01T00:21:37.785Z,3.58
2022-12-01T00:24:04.407Z,3.54
2022-12-01T00:26:30.861Z,3.57
2022-12-01T00:28:59.465Z,3.59
2022-12-01T00:31:26.621Z,3.60
2022-12-01T00:33:53.751Z,3.64
2022-12-01T00:36:20.633Z,3.70
2022-12-01T00:38:47.551Z,3.75
2022-12-01T00:41:14.273Z,3.72
2022-12-01T00:43:40.778Z,3.63
2022-12-01T00:46:07.281Z,3.62
2022-12-01T00:48:33.958Z,3.65
2022-12-01T00:51:00.445Z,3.70
2022-12-01T00:53:27.133Z,3.74
2022-12-01T00:55:54.065Z,3.75
2022-12-01T00:58:21.857Z,3.70
2022-12-01T01:00:49.185Z,3.64
2022-12-01T01:03:15.695Z,3.61
2022-12-01T01:05:43.204Z,3.62
2022-12-01T01:08:11.535Z,3.60
2022-12-01T01:10:39.627Z,3.62
2022-12-01T01:13:06.369Z,3.59
2022-12-01T01:15:32.844Z,3.53
2022-12-01T01:17:59.406Z,3.44
2022-12-01T01:20:25.937Z,3.50
2022-12-01T01:22:52.363Z,3.49
2022-12-01T01:25:19.014Z,3.52
2022-12-01T01:27:45.491Z,3.52
2022-12-01T01:30:13.244Z,3.53
2022-12-01T01:32:39.555Z,3.54
2022-12-01T01:35:06.597Z,3.57
2022-12-01T01:37:33.053Z,3.60
2022-12-01T01:39:59.541Z,3.55
2022-12-01T01:42:26.078Z,3.54
2022-12-01T01:44:54.143Z,3.55
2022-12-01T01:47:26.653Z,3.57
2022-12-01T01:49:56.184Z,3.60
2022-12-01T01:52:23.705Z,3.57
2022-12-01T01:54:53.475Z,3.62
2022-12-01T01:57:25.639Z,3.56
2022-12-01T01:59:58.072Z,3.63
2022-12-01T02:02:25.664Z,3.64
2022-12-01T02:04:58.635Z,3.68
2022-12-01T02:07:25.443Z,3.69
2022-12-01T02:12:38.631Z,3.63
2022-12-01T02:15:25.070Z,3.65
2022-12-01T02:18:15.875Z,3.58
2022-12-01T02:20:58.949Z,3.51
2022-12-01T02:23:43.317Z,3.49
2022-12-01T02:26:28.457Z,3.50
2022-12-01T02:29:22.696Z,3.53
2022-12-01T02:31:52.074Z,3.49
2022-12-01T02:34:25.747Z,3.49
2022-12-01T02:37:15.662Z,3.51
2022-12-01T02:39:52.807Z,3.48
2022-12-01T02:42:54.199Z,3.47
2022-12-01T02:45:33.725Z,3.51
2022-12-01T02:48:02.583Z,3.53
2022-12-01T02:50:32.442Z,3.61
2022-12-01T02:53:01.226Z,3.60
2022-12-01T02:55:27.589Z,3.62
2022-12-01T02:57:53.952Z,3.54
2022-12-01T03:00:20.623Z,3.58
2022-12-01T03:02:58.855Z,3.55
2022-12-01T03:06:08.458Z,3.57
2022-12-01T03:08:55.605Z,3.56
2022-12-01T03:11:34.033Z,3.55
2022-12-01T03:14:24.855Z,3.63
2022-12-01T03:16:53.458Z,3.63
2022-12-01T03:19:41.696Z,3.59
2022-12-01T03:22:35.425Z,3.55
2022-12-01T03:25:04.054Z,3.56
2022-12-01T03:27:35.297Z,3.51
2022-12-01T03:30:03.699Z,3.54
2022-12-01T03:32:38.438Z,3.46
2022-12-01T03:35:12.613Z,3.50
2022-12-01T03:37:49.402Z,3.51
2022-12-01T03:40:19.858Z,3.49
2022-12-01T03:42:47.879Z,3.44
2022-12-01T03:45:19.860Z,3.54
2022-12-01T03:47:46.524Z,3.63
2022-12-01T03:50:14.363Z,3.63
2022-12-01T03:53:11.046Z,3.63
2022-12-01T03:55:42.404Z,3.59
2022-12-01T03:58:21.824Z,3.58
2022-12-01T04:00:51.546Z,3.60
2022-12-01T04:03:20.524Z,3.56
2022-12-01T04:05:46.884Z,3.55
2022-12-01T04:08:13.295Z,3.59
2022-12-01T04:10:39.746Z,3.63
2022-12-01T04:13:06.270Z,3.61
2022-12-01T04:15:32.595Z,3.60
2022-12-01T04:17:59.074Z,3.49
2022-12-01T04:20:25.449Z,3.57
2022-12-01T04:22:51.870Z,3.62
2022-12-01T04:25:18.309Z,3.65
2022-12-01T04:27:44.788Z,3.66
2022-12-01T04:30:12.407Z,3.70
2022-12-01T04:32:40.948Z,3.67
2022-12-01T04:35:09.372Z,3.64
2022-12-01T04:37:36.149Z,3.61
2022-12-01T04:40:02.670Z,3.60
2022-12-01T04:42:29.031Z,3.54
2022-12-01T04:44:55.409Z,3.54
2022-12-01T04:47:21.796Z,3.51
2022-12-01T04:49:49.290Z,3.50
2022-12-01T04:52:16.026Z,3.50
2022-12-01T04:54:42.443Z,3.48
2022-12-01T04:57:08.808Z,3.50
2022-12-01T04:59:35.243Z,3.55
2022-12-01T05:02:02.737Z,3.59
2022-12-01T05:04:31.120Z,3.55
2022-12-01T05:06:57.551Z,3.49
2022-12-01T05:09:23.886Z,3.52
2022-12-01T05:11:50.217Z,3.50
2022-12-01T05:14:16.650Z,3.50
2022-12-01T05:16:43.020Z,3.47
2022-12-01T05:19:28.233Z,3.39
2022-12-01T05:21:54.624Z,3.42
2022-12-01T05:24:22.240Z,3.42
2022-12-01T05:26:48.828Z,3.39
2022-12-01T05:29:15.320Z,3.43
2022-12-01T05:31:41.969Z,3.33
2022-12-01T05:34:09.137Z,3.34
2022-12-01T05:36:36.353Z,3.40
2022-12-01T05:39:03.419Z,3.28
2022-12-01T05:41:29.766Z,3.22
2022-12-01T05:43:56.201Z,3.30
2022-12-01T05:46:22.594Z,3.33
2022-12-01T05:48:49.109Z,3.33
2022-12-01T05:51:16.959Z,3.36
2022-12-01T05:53:43.614Z,3.33
2022-12-01T05:56:10.319Z,3.32
2022-12-01T05:58:36.865Z,3.30
2022-12-01T06:01:03.620Z,3.27
2022-12-01T06:03:29.966Z,3.33
2022-12-01T06:05:56.393Z,3.28
2022-12-01T06:08:23.019Z,3.38
2022-12-01T06:10:49.446Z,3.39
2022-12-01T06:13:15.880Z,3.40
2022-12-01T06:15:42.335Z,3.37
2022-12-01T06:18:08.852Z,3.35
2022-12-01T06:20:35.270Z,3.36
2022-12-01T06:23:01.652Z,3.39
2022-12-01T06:25:27.977Z,3.41
2022-12-01T06:27:58.374Z,3.35
2022-12-01T06:30:25.492Z,3.35
2022-12-01T06:32:51.842Z,3.32
2022-12-01T06:35:18.338Z,3.35
2022-12-01T06:37:44.815Z,3.27
2022-12-01T06:40:12.209Z,3.27
2022-12-01T06:42:38.693Z,3.24
2022-12-01T06:45:05.487Z,3.29
2022-12-01T06:47:31.848Z,3.23
2022-12-01T06:49:58.184Z,3.25
2022-12-01T06:52:24.555Z,3.27
2022-12-01T06:54:51.068Z,3.30
2022-12-01T06:57:17.778Z,3.29
2022-12-01T06:59:44.336Z,3.31
2022-12-01T07:02:11.861Z,3.33
2022-12-01T07:04:38.298Z,3.36
2022-12-01T07:07:05.391Z,3.35
2022-12-01T07:09:31.818Z,3.34
2022-12-01T07:11:58.201Z,3.35
2022-12-01T07:14:26.610Z,3.35
2022-12-01T07:16:53.479Z,3.28
2022-12-01T07:19:20.356Z,3.26
2022-12-01T07:21:46.788Z,3.28
2022-12-01T07:24:13.294Z,3.31
2022-12-01T07:26:40.996Z,3.33
2022-12-01T07:29:08.690Z,3.37
2022-12-01T07:31:35.849Z,3.42
2022-12-01T07:34:02.276Z,3.54
2022-12-01T07:36:28.666Z,3.60
2022-12-01T07:38:55.062Z,3.59
2022-12-01T07:41:21.562Z,3.60
2022-12-01T07:43:48.257Z,3.61
2022-12-01T07:46:22.291Z,3.68
2022-12-01T07:48:49.598Z,3.73
2022-12-01T07:51:16.809Z,3.83
2022-12-01T07:53:49.067Z,3.83
2022-12-01T07:56:16.250Z,3.83
2022-12-01T07:58:42.845Z,3.85
2022-12-01T08:01:14.683Z,3.79
2022-12-01T08:03:42.426Z,3.85
2022-12-01T08:06:09.989Z,3.92
2022-12-01T08:08:37.958Z,3.94
2022-12-01T08:11:08.017Z,3.96
2022-12-01T08:13:34.744Z,3.96
2022-12-01T08:16:05.750Z,4.01
2022-12-01T08:18:35.534Z,4.07
2022-12-01T08:21:02.462Z,4.12
2022-12-01T08:23:28.843Z,4.17
2022-12-01T08:25:55.538Z,4.21
2022-12-01T08:28:22.066Z,4.29
2022-12-01T08:30:48.636Z,4.24
2022-12-01T08:33:15.193Z,4.30
2022-12-01T08:35:41.581Z,4.27
2022-12-01T08:38:09.052Z,4.38
2022-12-01T08:40:35.457Z,4.32
2022-12-01T08:43:01.912Z,4.32
2022-12-01T08:45:28.346Z,4.25
2022-12-01T08:47:58.875Z,4.31
2022-12-01T08:50:26.756Z,4.31
2022-12-01T08:52:53.184Z,4.31
2022-12-01T08:55:20.581Z,4.38
2022-12-01T08:57:46.939Z,4.43
2022-12-01T09:00:14.182Z,4.48
2022-12-01T09:02:40.631Z,4.48
2022-12-01T09:05:07.400Z,4.53
2022-12-01T09:07:33.795Z,4.65
2022-12-01T09:10:00.164Z,4.79
2022-12-01T09:12:28.964Z,4.80
2022-12-01T09:14:55.371Z,4.72
2022-12-01T09:17:21.738Z,4.82
2022-12-01T09:19:48.603Z,4.87
2022-12-01T09:22:15.299Z,4.96
2022-12-01T09:24:41.628Z,5.10
2022-12-01T09:27:09.299Z,5.21
2022-12-01T09:29:35.886Z,5.24
2022-12-01T09:32:02.269Z,5.32
2022-12-01T09:34:29.278Z,5.44
2022-12-01T09:36:57.566Z,5.54
2022-12-01T09:39:24.694Z,5.57
2022-12-01T09:42:06.126Z,5.61
2022-12-01T09:44:53.181Z,5.57
2022-12-01T09:47:33.821Z,5.63
2022-12-01T09:50:10.621Z,5.52
2022-12-01T09:52:59.802Z,5.49
2022-12-01T09:55:28.537Z,5.39
2022-12-01T09:57:59.104Z,5.36
2022-12-01T10:00:29.979Z,5.31
2022-12-01T10:03:00.913Z,5.30
2022-12-01T10:05:36.570Z,5.31
2022-12-01T10:08:08.136Z,5.43
2022-12-01T10:10:39.583Z,5.54
2022-12-01T10:13:20.424Z,5.59
2022-12-01T10:16:08.389Z,5.66
2022-12-01T10:19:03.523Z,5.72
2022-12-01T10:21:44.315Z,5.35
2022-12-01T10:24:16.531Z,5.44
2022-12-01T10:27:14.546Z,5.59
2022-12-01T10:29:59.619Z,5.75
2022-12-01T10:32:54.160Z,5.72
2022-12-01T10:35:24.284Z,5.70
2022-12-01T10:38:01.457Z,5.83
2022-12-01T10:40:28.373Z,5.93
2022-12-01T10:42:55.622Z,5.94
2022-12-01T10:45:28.009Z,5.97
2022-12-01T10:48:20.649Z,6.00
2022-12-01T10:50:55.398Z,5.98
2022-12-01T10:53:33.654Z,5.94
2022-12-01T10:56:12.507Z,5.92
2022-12-01T10:58:44.195Z,5.96
2022-12-01T11:01:27.504Z,5.97
2022-12-01T11:04:02.263Z,5.90
2022-12-01T11:06:30.822Z,5.96
2022-12-01T11:09:00.881Z,6.07
2022-12-01T11:11:34.256Z,6.10
2022-12-01T11:14:04.771Z,6.08
2022-12-01T11:16:36.225Z,6.19
2022-12-01T11:19:26.819Z,6.17
2022-12-01T11:21:58.649Z,6.21
2022-12-01T11:24:51.628Z,6.31
2022-12-01T11:27:26.327Z,6.30
2022-12-01T11:29:56.905Z,6.32
2022-12-01T11:32:29.897Z,6.40
2022-12-01T11:35:05.625Z,6.42
2022-12-01T11:38:27.579Z,6.59
2022-12-01T11:40:53.613Z,6.76
2022-12-01T11:43:25.252Z,6.84
2022-12-01T11:45:53.113Z,6.95
2022-12-01T11:48:26.117Z,7.05
2022-12-01T11:51:16.097Z,7.07
2022-12-01T11:53:43.548Z,7.15
2022-12-01T11:56:12.649Z,7.24
2022-12-01T11:58:39.234Z,7.31
2022-12-01T12:04:21.562Z,7.61
2022-12-01T12:07:14.424Z,7.69
2022-12-01T12:10:05.215Z,7.64
2022-12-01T12:13:05.631Z,7.70
2022-12-01T12:15:56.666Z,7.74
2022-12-01T12:18:38.002Z,7.73
2022-12-01T12:21:30.147Z,7.71
2022-12-01T12:24:17.721Z,7.79
2022-12-01T12:27:01.606Z,7.72
2022-12-01T12:29:52.743Z,7.70
2022-12-01T12:32:47.587Z,7.75
2022-12-01T12:35:27.811Z,7.77
2022-12-01T12:38:32.494Z,7.79
2022-12-01T12:41:09.073Z,7.77
2022-12-01T12:44:00.287Z,7.90
2022-12-01T12:46:54.361Z,7.77
2022-12-01T12:49:37.428Z,7.75
2022-12-01T12:52:15.982Z,7.79
2022-12-01T12:54:50.452Z,7.72
2022-12-01T12:57:35.177Z,7.77
2022-12-01T13:00:05.274Z,7.78
2022-12-01T13:02:38.926Z,7.81
2022-12-01T13:05:05.504Z,7.86
2022-12-01T13:07:42.251Z,7.90
2022-12-01T13:10:25.338Z,7.78
2022-12-01T13:12:58.814Z,7.59
2022-12-01T13:15:27.220Z,7.73
2022-12-01T13:18:03.525Z,7.77
2022-12-01T13:20:33.163Z,7.81
2022-12-01T13:23:02.056Z,7.86
2022-12-01T13:25:39.433Z,7.83
2022-12-01T13:28:18.916Z,7.72
2022-12-01T13:31:03.988Z,7.63
2022-12-01T13:33:31.968Z,7.48
2022-12-01T13:36:30.020Z,7.24
2022-12-01T13:38:58.102Z,7.12
2022-12-01T13:41:38.503Z,7.08
2022-12-01T13:44:20.029Z,7.00
2022-12-01T13:46:46.663Z,7.07
2022-12-01T13:49:47.068Z,7.00
2022-12-01T13:52:22.837Z,6.97
2022-12-01T13:55:25.285Z,6.97
2022-12-01T13:57:57.397Z,7.07
2022-12-01T14:00:25.988Z,7.10
2022-12-01T14:03:17.348Z,7.11
2022-12-01T14:05:53.068Z,7.11
2022-12-01T14:08:44.162Z,7.09
2022-12-01T14:11:23.226Z,7.02
2022-12-01T14:14:25.957Z,7.01
2022-12-01T14:17:02.532Z,6.97
2022-12-01T14:19:36.266Z,6.92
2022-12-01T14:22:05.281Z,6.92
2022-12-01T14:24:35.553Z,6.89
2022-12-01T14:27:03.642Z,6.90
2022-12-01T14:29:33.240Z,6.92
2022-12-01T14:32:04.184Z,6.96
2022-12-01T14:34:34.166Z,7.01
2022-12-01T14:37:08.337Z,7.05
2022-12-01T14:39:48.116Z,7.04
2022-12-01T14:42:41.032Z,6.97
2022-12-01T14:45:11.644Z,7.02
2022-12-01T14:47:47.555Z,7.07
2022-12-01T14:50:24.842Z,7.14
2022-12-01T14:53:31.869Z,7.10
2022-12-01T14:56:10.631Z,7.17
2022-12-01T14:58:37.077Z,7.21
2022-12-01T15:01:12.667Z,7.21
2022-12-01T15:03:43.677Z,7.19
2022-12-01T15:06:15.494Z,7.19
2022-12-01T15:08:53.372Z,7.16
2022-12-01T15:11:30.191Z,6.99
2022-12-01T15:13:57.751Z,6.90
2022-12-01T15:16:28.564Z,6.89
2022-12-01T15:18:55.293Z,6.77
2022-12-01T15:21:28.151Z,6.72
2022-12-01T15:24:03.287Z,6.66
2022-12-01T15:26:45.096Z,6.67
2022-12-01T15:29:19.123Z,6.65
2022-12-01T15:31:48.397Z,6.57
2022-12-01T15:34:23.231Z,6.53
2022-12-01T15:36:51.277Z,6.43
2022-12-01T15:39:21.534Z,6.41
2022-12-01T15:41:53.696Z,6.42
2022-12-01T15:44:32.930Z,6.41
2022-12-01T15:46:59.538Z,6.42
2022-12-01T15:49:32.851Z,6.45
2022-12-01T15:52:10.038Z,6.44
2022-12-01T15:54:37.413Z,6.33
2022-12-01T15:57:05.397Z,6.28
2022-12-01T15:59:39.947Z,6.31
2022-12-01T16:02:20.379Z,6.33
2022-12-01T16:04:48.818Z,6.37
2022-12-01T16:07:15.612Z,6.40
2022-12-01T16:09:58.524Z,6.40
2022-12-01T16:12:26.914Z,6.41
2022-12-01T16:15:08.327Z,6.41
2022-12-01T16:17:47.544Z,6.36
2022-12-01T16:20:35.529Z,6.31
2022-12-01T16:23:20.028Z,6.33
2022-12-01T16:25:48.551Z,6.34
2022-12-01T16:28:42.203Z,6.35
2022-12-01T16:31:19.490Z,6.31
2022-12-01T16:33:46.093Z,6.32
2022-12-01T16:36:14.455Z,6.32
2022-12-01T16:38:41.107Z,6.32
2022-12-01T16:41:26.693Z,6.32
2022-12-01T16:44:20.204Z,6.25
2022-12-01T16:46:40.858Z,6.31
2022-12-01T16:49:07.971Z,6.23
2022-12-01T16:51:54.774Z,6.25
2022-12-01T16:54:22.830Z,6.29
2022-12-01T16:56:49.406Z,6.30
2022-12-01T16:59:15.819Z,6.26
2022-12-01T17:01:42.186Z,6.22
2022-12-01T17:04:08.612Z,6.14
2022-12-01T17:06:36.188Z,6.09
2022-12-01T17:09:02.538Z,6.07
2022-12-01T17:11:28.898Z,6.05
2022-12-01T17:13:55.214Z,6.03
2022-12-01T17:16:21.693Z,6.06
2022-12-01T17:18:48.143Z,6.00
2022-12-01T17:21:14.498Z,5.99
2022-12-01T17:23:40.921Z,5.99
2022-12-01T17:26:15.827Z,5.99
2022-12-01T17:28:42.513Z,5.94
2022-12-01T17:31:09.478Z,6.02
2022-12-01T17:33:36.276Z,6.07
2022-12-01T17:36:06.284Z,6.11
2022-12-01T17:38:37.741Z,6.10
2022-12-01T17:41:07.024Z,6.02
2022-12-01T17:43:38.087Z,6.01
2022-12-01T17:46:06.808Z,6.01
2022-12-01T17:48:44.874Z,5.94
2022-12-01T17:51:12.886Z,5.91
2022-12-01T17:53:40.230Z,5.84
2022-12-01T17:56:12.093Z,5.86
2022-12-01T17:58:39.236Z,5.91
2022-12-01T18:01:06.470Z,5.89
2022-12-01T18:03:32.810Z,5.95
2022-12-01T18:06:01.275Z,5.95
2022-12-01T18:08:29.730Z,5.92
2022-12-01T18:11:03.013Z,5.85
2022-12-01T18:13:29.566Z,5.83
2022-12-01T18:15:55.987Z,5.76
2022-12-01T18:18:22.391Z,5.69
2022-12-01T18:20:48.882Z,5.68
2022-12-01T18:23:15.231Z,5.57
2022-12-01T18:25:41.607Z,5.61
2022-12-01T18:28:10.876Z,5.59
2022-12-01T18:30:38.628Z,5.53
2022-12-01T18:33:06.498Z,5.49
2022-12-01T18:35:32.936Z,5.43
2022-12-01T18:37:59.282Z,5.44
2022-12-01T18:40:25.600Z,5.42
2022-12-01T18:42:52.047Z,5.47
2022-12-01T18:45:21.225Z,5.50
2022-12-01T18:47:48.040Z,5.51
2022-12-01T18:50:14.478Z,5.49
2022-12-01T18:52:40.842Z,5.49
2022-12-01T18:55:07.590Z,5.51
2022-12-01T18:57:33.991Z,5.51
2022-12-01T19:00:00.364Z,5.53
2022-12-01T19:02:26.922Z,5.51
2022-12-01T19:04:53.448Z,5.55
2022-12-01T19:07:20.703Z,5.55
2022-12-01T19:09:49.540Z,5.58
2022-12-01T19:12:16.178Z,5.54
2022-12-01T19:14:42.501Z,5.53
2022-12-01T19:17:08.882Z,5.51
2022-12-01T19:19:37.577Z,5.53
2022-12-01T19:22:04.154Z,5.50
2022-12-01T19:24:30.543Z,5.46
2022-12-01T19:26:56.892Z,5.48
2022-12-01T19:29:23.337Z,5.51
2022-12-01T19:31:49.883Z,5.55
2022-12-01T19:34:16.321Z,5.54
2022-12-01T19:36:42.709Z,5.54
2022-12-01T19:39:09.183Z,5.54
2022-12-01T19:41:35.577Z,5.54
2022-12-01T19:44:02.131Z,5.51
2022-12-01T19:46:28.761Z,5.48
2022-12-01T19:48:57.842Z,5.49
2022-12-01T19:51:26.924Z,5.47
2022-12-01T19:53:54.194Z,5.48
2022-12-01T19:56:21.833Z,5.48
2022-12-01T19:58:48.118Z,5.47
2022-12-01T20:01:16.539Z,5.46
2022-12-01T20:03:46.132Z,5.48
2022-12-01T20:06:20.987Z,5.53
2022-12-01T20:08:47.885Z,5.55
2022-12-01T20:11:14.958Z,5.49
2022-12-01T20:13:44.168Z,5.44
2022-12-01T20:16:20.576Z,5.44
2022-12-01T20:18:47.658Z,5.43
2022-12-01T20:21:17.296Z,5.47
2022-12-01T20:23:45.577Z,5.44
2022-12-01T20:26:12.344Z,5.45
2022-12-01T20:28:40.301Z,5.46
2022-12-01T20:31:12.909Z,5.44
2022-12-01T20:33:40.190Z,5.43
2022-12-01T20:36:07.885Z,5.41
2022-12-01T20:38:34.997Z,5.42
2022-12-01T20:41:01.361Z,5.41
2022-12-01T20:43:28.493Z,5.40
2022-12-01T20:45:55.144Z,5.38
2022-12-01T20:48:21.617Z,5.41
2022-12-01T20:50:48.132Z,5.39
2022-12-01T20:53:14.543Z,5.39
2022-12-01T20:55:40.985Z,5.40
2022-12-01T20:58:08.772Z,5.43
2022-12-01T21:00:40.560Z,5.40
2022-12-01T21:03:07.014Z,5.40
2022-12-01T21:05:33.633Z,5.41
2022-12-01T21:08:01.400Z,5.43
2022-12-01T21:10:28.605Z,5.44
2022-12-01T21:13:18.429Z,5.47
2022-12-01T21:16:00.019Z,5.49
2022-12-01T21:18:38.731Z,5.49
2022-12-01T21:21:20.118Z,5.48
2022-12-01T21:23:47.049Z,5.48
2022-12-01T21:26:17.266Z,5.50
2022-12-01T21:28:44.806Z,5.47
2022-12-01T21:31:16.521Z,5.47
2022-12-01T21:33:47.754Z,5.44
2022-12-01T21:36:19.697Z,5.46
2022-12-01T21:38:48.189Z,5.50
2022-12-01T21:41:25.778Z,5.49
2022-12-01T21:43:55.404Z,5.46
2022-12-01T21:46:21.885Z,5.40
2022-12-01T21:48:50.649Z,5.40
2022-12-01T21:51:25.413Z,5.36
2022-12-01T21:53:53.643Z,5.33
2022-12-01T21:56:28.999Z,5.30
2022-12-01T21:58:58.528Z,5.30
2022-12-01T22:01:31.112Z,5.29
2022-12-01T22:04:02.469Z,5.25
2022-12-01T22:06:40.501Z,5.23
2022-12-01T22:09:27.028Z,5.29
2022-12-01T22:11:54.798Z,5.28
2022-12-01T22:14:22.633Z,5.29
2022-12-01T22:16:58.189Z,5.34
2022-12-01T22:19:30.628Z,5.37
2022-12-01T22:22:15.712Z,5.37
2022-12-01T22:24:59.360Z,5.36
2022-12-01T22:27:28.497Z,5.34
2022-12-01T22:30:07.265Z,5.32
2022-12-01T22:32:40.039Z,5.33
2022-12-01T22:35:31.663Z,5.28
2022-12-01T22:38:05.568Z,5.27
2022-12-01T22:40:51.391Z,5.28
2022-12-01T22:43:17.860Z,5.25
2022-12-01T22:45:49.332Z,5.23
2022-12-01T22:48:29.642Z,5.26
2022-12-01T22:51:18.828Z,5.27
2022-12-01T22:53:46.089Z,5.23
2022-12-01T22:56:35.427Z,5.22
2022-12-01T22:59:12.846Z,5.22
2022-12-01T23:01:46.589Z,5.21
2022-12-01T23:04:21.818Z,5.17
2022-12-01T23:06:52.933Z,5.17
2022-12-01T23:09:23.211Z,5.13
2022-12-01T23:11:55.169Z,5.18
2022-12-01T23:14:23.361Z,5.21
2022-12-01T23:16:56.359Z,5.20
2022-12-01T23:19:22.698Z,5.20
2022-12-01T23:21:52.252Z,5.20
2022-12-01T23:24:18.704Z,5.19
2022-12-01T23:26:46.494Z,5.22
2022-12-01T23:29:12.907Z,5.21
2022-12-01T23:31:39.629Z,5.16
2022-12-01T23:34:15.350Z,5.11
2022-12-01T23:36:42.937Z,5.05
2022-12-01T23:39:14.723Z,5.10
2022-12-01T23:41:44.509Z,5.09
2022-12-01T23:44:40.038Z,5.09
2022-12-01T23:47:18.505Z,5.03
2022-12-01T23:49:46.416Z,5.02
2022-12-01T23:52:18.591Z,4.99
2022-12-01T23:54:45.631Z,4.97
2022-12-01T23:57:21.637Z,4.99
2022-12-01T23:59:54.986Z,5.02
